Milwaukee, Wisconsin
Traffic Map
Current Weather Conditions
Milwaukee, Wisconsin
Few Clouds
Few Clouds
-4°
Feels Like: -11°
Wind Chill: -11° Ceiling: Unl
Heat Index: -4° Visibility: 8mi
Dew Point: -11° Wind: 12mph
Humidity: 62% Direction: 240° (WSW)
Pressure: 30.22in Gusts: 0mph
Raw Report DataKMKE 020052Z 24010KT 8SM FEW028 FEW200 M04/M11 A3022 RMK AO2 SLP248 T10441106 $
Traffic Incident Summary
Active as of:
Severity:
Category:
InformationThere was an issue retrieving the traffic information for this location. Please try a different location or try again shortly.
Advertisements
Track Severe Weather on mobile